Airfield :
LOGIN :

Register | Disclaimer

   EN    FR    IT 

 










Legend :    VFR   Marginal VFR   IFR   Intensive IFR   Very Intensive IFR
Visi :
Ceiling :
>= 8 km
>= 3000ft
5 to 8 km
1000 to 3000 ft
1500m to 5 km
500 to 1000 ft
800 to 1500m
200 to 500 ft
< 800m
< 200 ft
Symbols :   Thunderstorms  Fog  Heavy snow  Heavy precipitations  Wind > 20 kt
SIGMETs :     Misc.  Thunderstorms  Icing  Turbulence  Mountain Waves  Volcanic Ashes







- Airport Elevation : 146 ft
- IATA code : RKE


EKRK - Roskilde Tune

CURRENT METAR :
  • 161620Z AUTO 14003KT 6000NDV NCD 14/12 Q1018

EXPIRED METARs :
  • 161550Z 13002KT CAVOK 16/13 Q1018
  • 161520Z 12003KT CAVOK 17/13 Q1018
  • 161450Z 13004KT CAVOK 17/13 Q1018
  • 161420Z AUTO 14006KT 8000NDV NCD 18/13 Q1018
  • 161350Z 13005KT CAVOK 18/13 Q1018

TAF TAF EKRK
Valid from the 16 at 15:00 until the 17 at 00:00 UTC


161407Z 1615/1624 13005KT CAVOK
TEMPO 1615/1619 4000 BR
BECMG 1619/1621 2000 BR
PROB40 1621/1624 0200 FG VV001
No reported NOTAMs for that airfield.



MET'MAP, your aeronautical weather chart ! - Copyright ORBIFLY December 2007 - Disclaimer

ORBIFLY MET'MAP TEAM :

Programming & Development : Alexandra Zaïnal
Concept & Development : Baudouin d'Aumeries
Co-Development & Prog : Marc-Olivier Méhu
Technical & hardware support : Manuel Goepfert

Contact : metmap@orbifly.com




SOURCES & CREDITS :

   NOAA